Time;durP1;ratioP1;P1;durP2;ratioP2;P2;SDS_P1;SDS_P2;PMS_P1;PMS_P2;Temp;Humidity;BMP_temperature;BMP_pressure;BME280_temperature;BME280_humidity;BME280_pressure;Samples;Min_cycle;Max_cycle;Signal;HPM_P1;HPM_P2
2022/03/18 00:00:14;;;;;;;14.00;7.17;;;9.90;99.90;;;;;;5111789;28;20431;-46
2022/03/18 00:02:41;;;;;;;12.63;6.60;;;9.30;99.90;;;;;;5111817;28;20519;-46
2022/03/18 00:05:09;;;;;;;8.30;6.17;;;9.60;99.90;;;;;;5110609;28;20443;-46
2022/03/18 00:07:36;;;;;;;13.97;5.97;;;9.50;99.90;;;;;;5112112;28;20939;-46
2022/03/18 00:10:03;;;;;;;15.80;7.13;;;9.10;99.90;;;;;;5115478;28;20789;-46
2022/03/18 00:12:30;;;;;;;12.67;6.07;;;9.40;99.90;;;;;;5115550;28;20435;-46
2022/03/18 00:14:57;;;;;;;12.33;6.93;;;9.10;99.90;;;;;;5115853;28;20957;-46
2022/03/18 00:17:23;;;;;;;11.60;5.73;;;9.20;99.90;;;;;;5115750;28;20790;-47
2022/03/18 00:19:50;;;;;;;9.63;5.70;;;9.80;99.90;;;;;;5115358;28;20434;-46
2022/03/18 00:22:18;;;;;;;13.00;6.23;;;9.40;99.90;;;;;;5115745;28;20969;-46
2022/03/18 00:24:44;;;;;;;10.43;5.90;;;9.50;99.90;;;;;;5115610;27;20452;-46
2022/03/18 00:27:12;;;;;;;10.60;6.60;;;9.40;99.90;;;;;;5115476;28;20443;-46
2022/03/18 00:29:38;;;;;;;11.33;5.80;;;9.40;99.90;;;;;;5113837;28;20848;-46
2022/03/18 00:32:06;;;;;;;13.53;7.50;;;9.50;99.90;;;;;;5115347;28;20439;-46
2022/03/18 00:34:32;;;;;;;11.37;6.10;;;9.50;99.90;;;;;;5115377;28;20472;-47
2022/03/18 00:36:59;;;;;;;14.37;6.17;;;9.30;99.90;;;;;;5115294;28;20423;-46
2022/03/18 00:39:27;;;;;;;12.40;6.47;;;9.20;99.90;;;;;;5114993;28;20435;-46
2022/03/18 00:41:53;;;;;;;8.90;5.57;;;9.50;99.90;;;;;;5115345;28;20472;-46
2022/03/18 00:44:20;;;;;;;12.27;5.90;;;9.30;99.90;;;;;;5115236;28;20451;-46
2022/03/18 00:46:47;;;;;;;9.77;5.60;;;9.00;99.90;;;;;;5115176;28;20440;-46
2022/03/18 00:52:05;;;;;;;8.53;6.00;;;9.00;99.90;;;;;;5115469;28;20420;-46
2022/03/18 00:54:33;;;;;;;14.57;5.93;;;9.20;99.90;;;;;;5115117;28;20871;-46
2022/03/18 00:57:01;;;;;;;21.67;7.40;;;9.30;99.90;;;;;;5115163;28;20505;-46
2022/03/18 00:59:28;;;;;;;11.33;6.10;;;9.60;99.90;;;;;;5114848;28;20424;-46
2022/03/18 01:01:56;;;;;;;9.20;5.93;;;9.60;99.90;;;;;;5114893;28;20519;-46
2022/03/18 01:04:24;;;;;;;12.33;5.90;;;9.00;99.90;;;;;;5113461;28;20456;-47
2022/03/18 01:06:52;;;;;;;11.60;5.57;;;8.70;99.90;;;;;;5114950;28;20428;-45
2022/03/18 01:09:19;;;;;;;14.87;5.87;;;9.60;99.90;;;;;;5114285;28;21003;-45
2022/03/18 01:11:48;;;;;;;10.93;5.63;;;9.10;99.90;;;;;;5114684;28;20428;-45
2022/03/18 01:14:14;;;;;;;14.37;7.00;;;9.30;99.90;;;;;;5114774;28;20467;-45
2022/03/18 01:16:41;;;;;;;11.63;7.20;;;9.30;99.90;;;;;;5114671;28;20938;-45
2022/03/18 01:19:08;;;;;;;12.30;6.80;;;9.70;99.90;;;;;;5113781;28;20436;-45
2022/03/18 01:21:35;;;;;;;11.80;5.70;;;9.10;99.90;;;;;;5114590;28;20438;-45
2022/03/18 01:24:02;;;;;;;8.40;5.77;;;9.20;99.90;;;;;;5114589;28;20796;-45
2022/03/18 01:26:29;;;;;;;11.27;5.73;;;9.00;99.90;;;;;;5114578;28;20434;-45
2022/03/18 01:28:58;;;;;;;14.90;7.40;;;9.50;99.90;;;;;;5113932;28;20468;-45
2022/03/18 01:31:25;;;;;;;13.07;6.87;;;9.30;99.90;;;;;;5114507;28;20464;-45
2022/03/18 01:33:52;;;;;;;9.43;5.70;;;9.40;99.90;;;;;;5114344;28;21006;-46
2022/03/18 01:36:18;;;;;;;12.83;5.87;;;9.50;99.90;;;;;;5114237;28;20428;-45
2022/03/18 01:38:45;;;;;;;12.20;5.77;;;9.50;99.90;;;;;;5113773;28;20435;-45
2022/03/18 01:41:11;;;;;;;13.40;6.10;;;9.30;99.90;;;;;;5114234;28;20959;-46
2022/03/18 01:43:39;;;;;;;11.97;5.73;;;9.30;99.90;;;;;;5113915;28;20451;-46
2022/03/18 01:46:07;;;;;;;10.73;5.57;;;9.10;99.90;;;;;;5114144;28;20426;-46
2022/03/18 01:48:34;;;;;;;11.70;5.93;;;9.10;99.90;;;;;;5114673;28;20463;-46
2022/03/18 01:51:01;;;;;;;10.17;6.30;;;8.90;99.90;;;;;;5115034;28;20535;-45
2022/03/18 01:53:28;;;;;;;9.67;5.80;;;8.80;99.90;;;;;;5115183;28;20459;-45
2022/03/18 01:55:55;;;;;;;9.80;6.00;;;9.20;99.90;;;;;;5114978;28;20424;-45
2022/03/18 01:58:22;;;;;;;8.83;5.20;;;9.50;99.90;;;;;;5114834;28;20793;-45
2022/03/18 02:00:48;;;;;;;13.40;7.37;;;9.20;99.90;;;;;;5114673;28;20483;-45
2022/03/18 02:03:17;;;;;;;11.10;5.90;;;9.20;99.90;;;;;;5112892;28;20464;-45
2022/03/18 02:05:44;;;;;;;8.40;5.67;;;9.10;99.90;;;;;;5114314;28;20439;-46
2022/03/18 02:08:11;;;;;;;8.90;5.63;;;9.10;99.90;;;;;;5114223;28;20736;-45
2022/03/18 02:10:38;;;;;;;7.83;4.60;;;9.50;99.90;;;;;;5113436;28;20424;-46
2022/03/18 02:13:05;;;;;;;13.40;5.30;;;9.70;99.90;;;;;;5113450;28;20471;-46
2022/03/18 02:15:32;;;;;;;9.73;6.47;;;9.20;99.90;;;;;;5113597;28;20435;-45
2022/03/18 02:17:58;;;;;;;11.30;5.53;;;9.50;99.90;;;;;;5113479;28;20439;-45
2022/03/18 02:20:27;;;;;;;16.87;7.17;;;9.00;99.90;;;;;;5113293;28;20448;-45
2022/03/18 02:22:55;;;;;;;8.60;5.50;;;9.20;99.90;;;;;;5113232;28;20456;-45
2022/03/18 02:25:22;;;;;;;12.17;5.67;;;8.90;99.90;;;;;;5113235;28;20411;-45
2022/03/18 02:27:56;;;;;;;13.43;6.50;;;8.70;99.90;;;;;;5113137;28;20496;-45
2022/03/18 02:30:23;;;;;;;12.80;6.17;;;9.10;99.90;;;;;;5112718;28;20474;-45
2022/03/18 02:32:50;;;;;;;13.67;5.70;;;9.30;99.90;;;;;;5113041;28;20550;-45
2022/03/18 02:35:16;;;;;;;11.40;5.03;;;8.90;99.90;;;;;;5113134;28;20439;-47
2022/03/18 02:37:43;;;;;;;11.77;5.30;;;9.10;99.90;;;;;;5113364;28;20424;-45
2022/03/18 02:40:14;;;;;;;11.90;4.60;;;8.90;99.90;;;;;;5112593;28;20519;-45
2022/03/18 02:42:41;;;;;;;10.40;5.63;;;9.00;99.90;;;;;;5112994;28;20447;-45
2022/03/18 02:45:10;;;;;;;9.87;5.40;;;8.60;99.90;;;;;;5113056;28;20757;-45
2022/03/18 02:47:37;;;;;;;10.40;5.07;;;9.00;99.90;;;;;;5112877;28;20489;-46
2022/03/18 02:50:04;;;;;;;12.87;4.90;;;8.80;99.90;;;;;;5112649;28;20467;-45
2022/03/18 02:52:30;;;;;;;13.73;5.47;;;9.00;99.90;;;;;;5112790;28;20441;-45
2022/03/18 02:54:57;;;;;;;14.90;5.83;;;9.10;99.90;;;;;;5111418;28;20450;-45
2022/03/18 02:57:25;;;;;;;14.43;5.77;;;9.00;99.90;;;;;;5112858;28;20447;-46
2022/03/18 02:59:51;;;;;;;10.60;4.47;;;9.00;99.90;;;;;;5112262;28;20409;-45
2022/03/18 03:02:18;;;;;;;10.37;4.60;;;9.30;99.90;;;;;;5112779;28;20439;-45
2022/03/18 03:10:11;;;;;;;13.43;4.90;;;9.10;99.90;;;;;;5112097;28;20483;-45
2022/03/18 03:12:39;;;;;;;11.17;5.20;;;9.20;99.90;;;;;;5112284;28;20949;-45
2022/03/18 03:15:06;;;;;;;16.37;5.30;;;9.10;99.90;;;;;;5112746;28;20432;-45
2022/03/18 03:17:33;;;;;;;9.47;4.40;;;8.90;99.90;;;;;;5112303;28;20515;-45
2022/03/18 03:20:00;;;;;;;14.87;4.53;;;9.50;99.90;;;;;;5112581;28;20435;-45
2022/03/18 03:22:30;;;;;;;13.43;5.13;;;9.10;99.90;;;;;;5112487;28;20432;-45
2022/03/18 03:24:57;;;;;;;12.90;4.47;;;9.10;99.90;;;;;;5113238;28;20439;-45
2022/03/18 03:27:29;;;;;;;11.90;4.23;;;9.40;99.90;;;;;;5112602;28;20912;-45
2022/03/18 03:29:58;;;;;;;11.67;4.60;;;9.10;99.90;;;;;;5112177;28;20515;-45
2022/03/18 03:32:25;;;;;;;10.07;3.87;;;9.40;99.90;;;;;;5112375;28;20835;-45
2022/03/18 03:34:52;;;;;;;12.43;4.23;;;9.10;99.90;;;;;;5112540;28;20794;-47
2022/03/18 03:37:18;;;;;;;7.43;4.27;;;9.50;99.90;;;;;;5112204;28;21017;-45
2022/03/18 03:39:45;;;;;;;13.83;5.47;;;9.20;99.90;;;;;;5112126;28;20428;-45
2022/03/18 03:42:12;;;;;;;17.67;5.10;;;8.50;99.90;;;;;;5112244;28;20432;-46
2022/03/18 03:44:38;;;;;;;9.23;4.10;;;8.80;99.90;;;;;;5116037;28;20462;-46
2022/03/18 03:47:07;;;;;;;10.00;4.00;;;9.00;99.90;;;;;;5116444;28;20432;-46
2022/03/18 03:49:33;;;;;;;10.77;3.23;;;8.90;99.90;;;;;;5115886;28;20475;-46
2022/03/18 03:52:00;;;;;;;10.87;3.90;;;9.20;99.90;;;;;;5116202;28;20459;-46
2022/03/18 03:54:27;;;;;;;8.27;4.10;;;8.90;99.90;;;;;;5116272;28;20508;-45
2022/03/18 03:56:54;;;;;;;15.50;4.80;;;8.70;99.90;;;;;;5116447;28;20522;-45
2022/03/18 03:59:21;;;;;;;15.53;4.97;;;9.00;99.90;;;;;;5115840;27;20423;-45
2022/03/18 04:01:48;;;;;;;11.60;3.63;;;8.50;99.90;;;;;;5116326;28;20920;-45
2022/03/18 04:04:16;;;;;;;16.53;4.50;;;8.90;99.90;;;;;;5116102;28;20499;-45
2022/03/18 04:06:43;;;;;;;9.33;3.63;;;8.90;99.90;;;;;;5116104;28;20767;-45
2022/03/18 04:09:09;;;;;;;13.10;4.93;;;8.90;99.90;;;;;;5115528;28;20479;-45
2022/03/18 04:11:36;;;;;;;20.70;4.50;;;9.20;99.90;;;;;;5115817;28;20428;-45
2022/03/18 04:14:03;;;;;;;12.70;5.00;;;8.90;99.90;;;;;;5115677;28;20486;-45
2022/03/18 04:16:29;;;;;;;13.10;3.60;;;8.90;99.90;;;;;;5115658;28;20435;-46
2022/03/18 04:18:56;;;;;;;13.07;4.00;;;9.00;99.90;;;;;;5115376;28;20959;-45
2022/03/18 04:21:24;;;;;;;8.00;4.00;;;9.40;99.90;;;;;;5115643;28;20828;-45
2022/03/18 04:23:50;;;;;;;14.10;4.50;;;8.90;99.90;;;;;;5115494;28;20451;-45
2022/03/18 04:26:17;;;;;;;7.33;3.60;;;8.90;99.90;;;;;;5115903;28;20435;-45
2022/03/18 04:28:44;;;;;;;14.10;3.73;;;8.90;99.90;;;;;;5115282;28;20488;-46
2022/03/18 04:31:10;;;;;;;6.90;4.00;;;8.90;99.90;;;;;;5115829;28;20947;-45
2022/03/18 04:33:37;;;;;;;10.13;4.23;;;9.00;99.90;;;;;;5115566;28;20451;-45
2022/03/18 04:36:04;;;;;;;16.53;4.83;;;8.60;99.90;;;;;;5115750;27;20427;-46
2022/03/18 04:38:32;;;;;;;10.73;4.23;;;8.80;99.90;;;;;;5114938;28;20545;-45
2022/03/18 04:40:58;;;;;;;14.73;4.60;;;8.30;99.90;;;;;;5115349;28;20442;-46
2022/03/18 04:43:25;;;;;;;9.70;3.80;;;8.30;99.90;;;;;;5115249;28;20465;-46
2022/03/18 04:45:52;;;;;;;12.40;4.33;;;8.50;99.90;;;;;;5115404;28;20534;-46
2022/03/18 04:48:18;;;;;;;17.30;4.13;;;8.30;99.90;;;;;;5115439;28;20442;-46
2022/03/18 04:50:45;;;;;;;9.20;3.90;;;9.00;99.90;;;;;;5114909;28;20511;-46
2022/03/18 04:53:12;;;;;;;7.53;3.20;;;8.50;99.90;;;;;;5115026;28;20455;-45
2022/03/18 04:55:40;;;;;;;21.73;4.20;;;8.80;99.90;;;;;;5115106;28;20935;-45
2022/03/18 04:58:06;;;;;;;13.80;3.80;;;8.30;99.90;;;;;;5115336;28;20406;-45
2022/03/18 05:00:35;;;;;;;13.53;4.23;;;8.30;99.90;;;;;;5114706;28;20434;-46
2022/03/18 05:03:02;;;;;;;11.23;3.70;;;8.40;99.90;;;;;;5115313;28;20825;-45
2022/03/18 05:05:29;;;;;;;16.33;4.80;;;8.40;99.90;;;;;;5116569;28;20447;-45
2022/03/18 05:07:56;;;;;;;15.40;4.30;;;8.50;99.90;;;;;;5116282;28;20454;-45
2022/03/18 05:10:24;;;;;;;13.00;3.23;;;8.00;99.90;;;;;;5115809;28;20483;-44
2022/03/18 05:12:53;;;;;;;10.20;4.10;;;8.60;99.90;;;;;;5116909;28;20821;-44
2022/03/18 05:15:19;;;;;;;10.80;4.50;;;8.20;99.90;;;;;;5116410;28;20448;-45
2022/03/18 05:17:51;;;;;;;11.93;3.50;;;8.00;99.90;;;;;;5115784;28;20431;-46
2022/03/18 05:20:18;;;;;;;17.20;3.80;;;8.40;99.90;;;;;;5115322;28;20420;-45
2022/03/18 05:22:45;;;;;;;8.60;3.70;;;8.00;99.90;;;;;;5115128;28;20868;-45
2022/03/18 05:25:12;;;;;;;17.10;4.43;;;8.10;99.90;;;;;;5115022;28;20477;-46
2022/03/18 05:27:41;;;;;;;13.30;3.53;;;8.00;99.90;;;;;;5114798;28;20488;-46
2022/03/18 05:30:11;;;;;;;14.87;3.93;;;8.20;99.90;;;;;;5114157;28;20561;-46
2022/03/18 05:32:38;;;;;;;12.53;3.53;;;8.10;99.90;;;;;;5114468;28;20454;-46
2022/03/18 05:35:05;;;;;;;11.13;3.23;;;8.30;99.90;;;;;;5114047;28;20444;-45
2022/03/18 05:37:32;;;;;;;10.87;3.27;;;8.20;99.90;;;;;;5114143;28;20437;-46
2022/03/18 05:39:59;;;;;;;10.20;3.60;;;7.90;99.90;;;;;;5113809;28;20402;-46
2022/03/18 05:42:26;;;;;;;10.87;3.63;;;8.50;99.90;;;;;;5113907;28;20492;-46
2022/03/18 05:44:54;;;;;;;12.60;3.70;;;7.90;99.90;;;;;;5114227;28;20439;-46
2022/03/18 05:47:22;;;;;;;11.47;3.40;;;8.00;99.90;;;;;;5113843;28;20437;-45
2022/03/18 05:49:49;;;;;;;9.80;3.07;;;8.00;99.90;;;;;;5113420;28;20462;-45
2022/03/18 05:52:15;;;;;;;12.83;3.20;;;8.00;99.90;;;;;;5113899;28;20438;-45
2022/03/18 05:54:42;;;;;;;19.70;4.50;;;7.80;99.90;;;;;;5113995;28;20465;-46
2022/03/18 05:57:07;;;;;;;16.80;4.20;;;8.20;99.90;;;;;;5113751;28;20431;-46
2022/03/18 05:59:36;;;;;;;16.03;3.83;;;8.10;99.90;;;;;;5113438;28;20442;-45
2022/03/18 06:02:03;;;;;;;12.10;2.90;;;8.00;99.90;;;;;;5113820;28;20445;-45
2022/03/18 06:04:31;;;;;;;15.13;3.90;;;8.10;99.90;;;;;;5113660;28;20457;-46
2022/03/18 06:06:58;;;;;;;11.43;2.87;;;7.80;99.90;;;;;;5113330;28;20431;-46
2022/03/18 06:12:10;;;;;;;10.80;4.60;;;7.90;99.90;;;;;;5113853;28;20442;-45
2022/03/18 06:14:37;;;;;;;16.40;3.73;;;8.10;99.90;;;;;;5113237;28;20463;-46
2022/03/18 06:17:05;;;;;;;13.17;4.10;;;7.70;99.90;;;;;;5113705;28;20438;-45
2022/03/18 06:19:33;;;;;;;7.03;3.03;;;8.00;99.90;;;;;;5113214;28;20434;-48
2022/03/18 06:22:01;;;;;;;13.70;3.90;;;7.70;99.90;;;;;;5113590;28;20442;-45
2022/03/18 06:24:28;;;;;;;10.33;3.40;;;7.70;99.90;;;;;;5113565;28;20485;-48
2022/03/18 06:26:55;;;;;;;12.57;3.80;;;7.40;99.90;;;;;;5113274;28;20431;-46
2022/03/18 06:29:22;;;;;;;13.03;3.20;;;7.60;99.90;;;;;;5112831;28;20434;-45
2022/03/18 06:31:49;;;;;;;14.50;3.57;;;7.70;99.90;;;;;;5113328;28;20469;-46
2022/03/18 06:34:18;;;;;;;12.63;3.63;;;7.60;99.90;;;;;;5111712;28;20473;-46
2022/03/18 06:36:46;;;;;;;10.97;3.40;;;7.90;99.90;;;;;;5112922;28;20439;-46
2022/03/18 06:39:12;;;;;;;8.63;3.50;;;7.50;99.90;;;;;;5113191;28;20405;-47
2022/03/18 06:41:39;;;;;;;13.40;3.50;;;7.80;99.90;;;;;;5112981;28;20434;-47
2022/03/18 06:44:08;;;;;;;19.40;4.10;;;7.90;99.90;;;;;;5113067;28;20453;-47
2022/03/18 06:46:35;;;;;;;14.87;3.93;;;7.50;99.90;;;;;;5113578;28;20533;-46
2022/03/18 06:49:01;;;;;;;20.20;3.60;;;7.50;99.90;;;;;;5112997;28;20433;-47
2022/03/18 06:51:28;;;;;;;19.03;4.53;;;7.70;99.90;;;;;;5113810;28;20809;-47
2022/03/18 06:53:56;;;;;;;16.87;3.47;;;7.70;99.90;;;;;;5113292;28;20969;-46
2022/03/18 06:56:23;;;;;;;15.67;4.10;;;7.90;99.90;;;;;;5113145;28;20799;-46
2022/03/18 06:58:49;;;;;;;11.70;5.27;;;7.50;99.90;;;;;;5113141;28;20434;-46
2022/03/18 07:01:16;;;;;;;10.53;3.23;;;7.00;99.90;;;;;;5112926;28;20409;-47
2022/03/18 07:03:43;;;;;;;14.53;4.07;;;7.80;99.90;;;;;;5113307;28;20528;-45
2022/03/18 07:06:09;;;;;;;13.43;3.50;;;7.20;99.90;;;;;;5113634;28;20834;-48
2022/03/18 07:08:36;;;;;;;15.43;3.70;;;7.10;99.90;;;;;;5112646;28;20438;-46
2022/03/18 07:11:04;;;;;;;16.07;5.90;;;7.50;99.90;;;;;;5112793;28;20846;-46
2022/03/18 07:13:31;;;;;;;14.43;4.00;;;7.60;99.90;;;;;;5113241;28;20465;-46
2022/03/18 07:17:54;;;;;;;16.83;4.20;;;7.20;99.90;;;;;;5113155;28;20404;-46
2022/03/18 07:18:44;;;;;;;13.53;3.70;;;7.90;99.90;;;;;;5112463;28;20507;-45
2022/03/18 07:21:11;;;;;;;27.83;4.90;;;7.80;99.90;;;;;;5114069;28;20521;-46
2022/03/18 07:23:37;;;;;;;17.67;4.13;;;7.40;99.90;;;;;;5113846;28;20224;-45
2022/03/18 07:26:05;;;;;;;16.40;3.20;;;8.00;99.90;;;;;;5113455;28;20434;-45
2022/03/18 07:28:32;;;;;;;8.87;3.20;;;7.60;99.90;;;;;;5114627;28;20438;-46
2022/03/18 07:30:58;;;;;;;13.93;4.70;;;8.00;99.90;;;;;;5113735;28;20494;-46
2022/03/18 07:33:25;;;;;;;11.90;3.90;;;7.80;99.90;;;;;;5113333;28;20433;-46
2022/03/18 07:35:51;;;;;;;16.33;4.30;;;8.10;99.90;;;;;;5113450;28;20437;-47
2022/03/18 07:38:20;;;;;;;22.10;3.93;;;7.30;99.90;;;;;;5113490;28;20434;-45
2022/03/18 07:40:46;;;;;;;16.00;4.03;;;7.60;99.90;;;;;;5112450;28;20445;-46
2022/03/18 07:43:14;;;;;;;12.10;2.93;;;8.10;99.90;;;;;;5113185;28;20461;-46
2022/03/18 07:45:41;;;;;;;16.83;3.67;;;8.30;99.90;;;;;;5112953;28;20428;-47
2022/03/18 07:48:09;;;;;;;10.67;3.57;;;8.10;99.90;;;;;;5112931;28;20446;-47
2022/03/18 07:50:37;;;;;;;12.07;4.20;;;8.00;99.90;;;;;;5112903;28;20479;-46
2022/03/18 07:53:05;;;;;;;9.67;3.57;;;8.00;99.90;;;;;;5113486;28;20992;-46
2022/03/18 07:55:34;;;;;;;18.37;3.50;;;7.90;99.90;;;;;;5113463;28;20438;-46
2022/03/18 07:58:01;;;;;;;11.60;2.97;;;8.00;99.90;;;;;;5112830;28;20525;-46
2022/03/18 08:00:29;;;;;;;13.00;3.27;;;7.30;99.90;;;;;;5112549;28;20424;-46
2022/03/18 08:02:56;;;;;;;18.13;3.80;;;7.80;99.90;;;;;;5112698;28;20454;-46
2022/03/18 08:05:23;;;;;;;17.60;4.80;;;7.80;99.90;;;;;;5112721;28;20760;-47
2022/03/18 08:07:49;;;;;;;16.00;5.17;;;8.10;99.90;;;;;;5112329;28;20440;-47
2022/03/18 08:10:17;;;;;;;14.43;4.60;;;8.10;99.90;;;;;;5111816;28;20413;-46
2022/03/18 08:12:45;;;;;;;9.17;2.83;;;7.90;99.90;;;;;;5112209;28;20447;-45
2022/03/18 08:15:14;;;;;;;19.37;3.83;;;8.20;99.90;;;;;;5112642;28;20961;-47
2022/03/18 08:17:43;;;;;;;17.67;4.40;;;7.70;99.90;;;;;;5112624;28;20923;-46
2022/03/18 08:20:12;;;;;;;19.07;4.13;;;8.50;99.90;;;;;;5110247;28;20512;-47
2022/03/18 08:22:40;;;;;;;13.83;3.40;;;8.30;99.90;;;;;;5111553;28;20416;-47
2022/03/18 08:25:08;;;;;;;12.27;4.43;;;8.00;99.90;;;;;;5112040;28;20440;-47
2022/03/18 08:27:34;;;;;;;12.53;4.00;;;8.20;99.90;;;;;;5111562;28;20438;-46
2022/03/18 08:30:01;;;;;;;12.40;3.43;;;8.20;99.90;;;;;;5113428;28;20812;-46
2022/03/18 08:32:29;;;;;;;11.07;3.30;;;8.30;99.90;;;;;;5115528;28;20754;-46
2022/03/18 08:34:58;;;;;;;12.53;4.00;;;8.30;99.90;;;;;;5115993;28;20442;-46
2022/03/18 08:40:06;;;;;;;16.83;4.10;;;8.20;99.90;;;;;;5116245;28;20470;-46
2022/03/18 08:42:34;;;;;;;14.10;3.57;;;8.30;99.90;;;;;;5116287;28;20439;-46
2022/03/18 08:45:01;;;;;;;14.20;3.60;;;8.40;99.90;;;;;;5116339;28;20434;-47
2022/03/18 08:47:27;;;;;;;14.03;3.60;;;8.40;99.90;;;;;;5115926;28;20428;-47
2022/03/18 08:49:54;;;;;;;14.97;5.30;;;8.50;99.90;;;;;;5115311;28;20427;-47
2022/03/18 08:52:24;;;;;;;15.80;3.80;;;8.60;99.90;;;;;;5115087;28;20504;-46
2022/03/18 08:54:50;;;;;;;14.53;4.03;;;8.10;99.90;;;;;;5115113;28;20413;-45
2022/03/18 08:57:17;;;;;;;19.87;4.10;;;8.80;99.90;;;;;;5114959;28;20439;-46
2022/03/18 08:59:44;;;;;;;25.80;6.43;;;8.60;99.90;;;;;;5114770;28;20442;-46
2022/03/18 09:02:11;;;;;;;20.57;5.27;;;8.50;99.90;;;;;;5115122;28;20728;-46
2022/03/18 09:04:37;;;;;;;12.93;3.20;;;8.60;99.90;;;;;;5115413;28;20459;-46
2022/03/18 09:07:05;;;;;;;11.23;3.67;;;9.00;99.90;;;;;;5115962;28;20437;-46
2022/03/18 09:09:32;;;;;;;12.70;3.57;;;8.70;99.90;;;;;;5115499;28;20428;-46
2022/03/18 09:11:59;;;;;;;13.57;4.90;;;8.80;99.90;;;;;;5115637;28;20515;-46
2022/03/18 09:14:26;;;;;;;15.83;3.80;;;8.70;99.90;;;;;;5114554;28;20440;-47
2022/03/18 09:16:52;;;;;;;10.27;3.97;;;8.90;99.90;;;;;;5114757;28;20412;-47
2022/03/18 09:19:19;;;;;;;16.07;5.00;;;9.30;99.90;;;;;;5114946;28;20471;-45
2022/03/18 09:21:45;;;;;;;10.83;3.70;;;8.80;99.90;;;;;;5115408;28;20431;-46
2022/03/18 09:24:12;;;;;;;12.43;4.63;;;9.00;99.90;;;;;;5101303;28;20921;-45
2022/03/18 09:26:40;;;;;;;13.63;4.43;;;8.70;99.90;;;;;;5096844;28;20444;-46
2022/03/18 09:29:07;;;;;;;18.37;3.90;;;9.00;99.90;;;;;;5096432;27;20446;-46
2022/03/18 09:31:34;;;;;;;8.87;2.97;;;8.90;99.90;;;;;;5097152;28;20464;-46
2022/03/18 09:34:00;;;;;;;14.37;4.23;;;8.90;99.90;;;;;;5095025;28;20435;-46
2022/03/18 09:36:27;;;;;;;13.23;4.90;;;9.30;99.90;;;;;;5093910;28;20415;-46
2022/03/18 09:38:54;;;;;;;25.03;4.60;;;9.00;99.90;;;;;;5099031;28;20419;-46
2022/03/18 09:41:21;;;;;;;16.00;4.80;;;9.50;99.90;;;;;;5107424;28;20444;-46
2022/03/18 09:43:49;;;;;;;12.93;6.03;;;9.30;99.90;;;;;;5096641;28;20463;-46
2022/03/18 09:46:16;;;;;;;19.13;5.80;;;9.20;99.90;;;;;;5094218;28;20448;-45
2022/03/18 09:48:44;;;;;;;16.87;5.70;;;9.00;99.90;;;;;;5093946;28;20441;-46
2022/03/18 09:51:11;;;;;;;16.10;6.20;;;9.40;99.90;;;;;;5093995;28;20450;-46
2022/03/18 09:53:37;;;;;;;18.07;6.10;;;9.30;99.90;;;;;;5093345;28;20460;-46
2022/03/18 09:56:05;;;;;;;11.03;4.77;;;9.60;99.90;;;;;;5106444;28;20436;-46
2022/03/18 09:58:32;;;;;;;22.80;5.60;;;9.70;99.90;;;;;;5110538;28;20446;-46
2022/03/18 10:01:01;;;;;;;18.60;5.60;;;9.60;99.90;;;;;;5113446;28;20431;-46
2022/03/18 10:03:37;;;;;;;14.63;5.13;;;9.40;99.90;;;;;;5113395;28;20497;-46
2022/03/18 10:06:04;;;;;;;17.70;5.40;;;9.80;99.90;;;;;;5114129;28;20432;-46
2022/03/18 10:08:50;;;;;;;21.87;5.00;;;9.30;99.90;;;;;;5113400;28;20936;-45
2022/03/18 10:11:19;;;;;;;11.93;5.77;;;9.80;99.90;;;;;;5113443;28;20499;-48
2022/03/18 10:13:54;;;;;;;15.87;5.50;;;9.70;99.90;;;;;;5094205;28;20472;-46
2022/03/18 10:16:39;;;;;;;10.63;5.70;;;9.60;99.90;;;;;;5092930;28;20493;-46
2022/03/18 10:19:09;;;;;;;15.10;5.30;;;10.20;99.90;;;;;;5092900;28;20439;-45
2022/03/18 10:21:50;;;;;;;13.87;5.40;;;9.90;99.90;;;;;;5093015;28;20444;-46
2022/03/18 10:24:17;;;;;;;18.33;8.13;;;9.80;99.90;;;;;;5091895;28;20468;-46
2022/03/18 10:26:43;;;;;;;18.97;6.17;;;9.50;99.90;;;;;;5093663;28;20412;-46
2022/03/18 10:29:11;;;;;;;11.90;6.00;;;9.80;99.90;;;;;;5093504;28;20435;-47
2022/03/18 10:31:45;;;;;;;10.57;5.07;;;10.00;99.90;;;;;;5100457;28;20476;-45
2022/03/18 10:37:08;;;;;;;15.80;5.63;;;9.90;99.90;;;;;;5102588;28;20591;-48
2022/03/18 10:39:37;;;;;;;14.97;5.90;;;9.80;99.90;;;;;;5107410;28;20451;-45
2022/03/18 10:42:06;;;;;;;19.38;7.30;;;10.00;99.70;;;;;;5111886;28;20441;-46
2022/03/18 10:44:47;;;;;;;22.37;7.57;;;10.40;99.60;;;;;;5096616;28;20674;-47
2022/03/18 10:47:27;;;;;;;11.80;5.37;;;10.30;99.30;;;;;;5097695;28;20449;-46
2022/03/18 10:49:54;;;;;;;19.83;6.20;;;10.20;99.30;;;;;;5092272;28;20489;-46
2022/03/18 10:52:23;;;;;;;15.50;6.37;;;10.20;99.30;;;;;;5102237;28;20522;-46
2022/03/18 10:54:50;;;;;;;16.23;5.47;;;10.50;99.50;;;;;;5111275;28;20448;-46
2022/03/18 10:57:18;;;;;;;11.70;5.80;;;10.70;99.40;;;;;;5113111;28;20402;-46
2022/03/18 10:59:44;;;;;;;16.50;6.60;;;10.40;99.20;;;;;;5092490;28;20527;-46
2022/03/18 11:02:15;;;;;;;15.55;6.00;;;10.70;99.00;;;;;;5092502;28;20477;-46
2022/03/18 11:04:44;;;;;;;12.52;5.90;;;10.20;98.70;;;;;;5103267;28;20545;-46
2022/03/18 11:15:18;;;;;;;12.43;6.10;;;10.70;97.10;;;;;;5049545;28;20459;-49
2022/03/18 11:17:45;;;;;;;32.30;7.27;;;10.50;97.50;;;;;;5051174;28;20409;-50
2022/03/18 11:20:14;;;;;;;10.37;5.30;;;11.00;97.80;;;;;;5050931;28;20417;-50
2022/03/18 11:22:41;;;;;;;13.27;5.70;;;10.40;96.70;;;;;;5050852;28;20418;-50
2022/03/18 11:25:10;;;;;;;18.37;10.10;;;10.70;97.10;;;;;;5071418;28;20420;-49
2022/03/18 11:27:39;;;;;;;16.83;6.47;;;10.70;97.40;;;;;;5071288;28;20798;-49
2022/03/18 11:30:24;;;;;;;18.37;6.43;;;10.50;97.20;;;;;;5070485;28;20446;-50
2022/03/18 11:33:22;;;;;;;18.33;5.63;;;10.70;96.70;;;;;;5070970;28;20481;-51
2022/03/18 11:36:13;;;;;;;13.80;6.00;;;10.60;96.80;;;;;;5071137;28;20882;-51
2022/03/18 11:39:02;;;;;;;14.13;5.37;;;10.70;96.70;;;;;;5070569;28;20438;-50
2022/03/18 11:41:51;;;;;;;11.87;5.63;;;11.00;96.90;;;;;;5070670;28;20434;-51
2022/03/18 11:44:49;;;;;;;13.37;5.40;;;11.00;96.70;;;;;;5071255;28;20485;-51
2022/03/18 11:47:48;;;;;;;12.30;5.43;;;11.00;96.80;;;;;;5070703;28;20440;-51
2022/03/18 11:50:48;;;;;;;15.70;6.87;;;10.70;96.30;;;;;;5070729;28;20472;-50
2022/03/18 11:53:51;;;;;;;9.07;4.83;;;10.80;96.00;;;;;;5070498;28;20485;-51
2022/03/18 11:56:20;;;;;;;13.67;6.27;;;10.80;95.90;;;;;;5052477;28;20461;-51
2022/03/18 11:58:48;;;;;;;14.10;5.57;;;11.00;96.10;;;;;;5070363;28;20438;-50
2022/03/18 12:01:40;;;;;;;12.63;4.83;;;10.70;95.80;;;;;;5070456;28;20434;-51
2022/03/18 12:04:08;;;;;;;14.30;4.67;;;10.90;96.00;;;;;;5071724;28;20461;-51
2022/03/18 12:07:08;;;;;;;12.00;4.87;;;11.50;96.30;;;;;;5074480;28;20437;-51
2022/03/18 12:09:53;;;;;;;13.10;5.70;;;11.10;95.60;;;;;;5074528;28;20430;-50
2022/03/18 12:12:23;;;;;;;12.13;5.50;;;11.60;95.40;;;;;;5074633;28;20466;-52
2022/03/18 12:14:51;;;;;;;11.33;4.93;;;11.60;95.00;;;;;;5074393;28;20472;-50
2022/03/18 12:17:17;;;;;;;12.33;4.97;;;11.30;94.60;;;;;;5074381;28;20442;-51
2022/03/18 12:19:52;;;;;;;12.60;4.27;;;11.20;94.40;;;;;;5074301;28;20782;-51
2022/03/18 12:22:19;;;;;;;14.20;4.50;;;11.20;94.20;;;;;;5074273;28;20429;-51
2022/03/18 12:24:51;;;;;;;17.87;4.27;;;11.00;93.80;;;;;;5056099;28;20553;-51
2022/03/18 12:27:19;;;;;;;9.93;3.73;;;11.40;93.40;;;;;;5074475;28;20441;-51
2022/03/18 12:29:46;;;;;;;11.27;4.07;;;11.70;93.30;;;;;;5073759;28;20870;-50
2022/03/18 12:32:15;;;;;;;12.90;3.77;;;11.60;93.20;;;;;;5054378;28;20905;-51
2022/03/18 12:34:50;;;;;;;12.50;4.10;;;11.50;92.80;;;;;;5054165;28;20455;-50
2022/03/18 12:37:20;;;;;;;10.50;3.60;;;11.50;92.20;;;;;;5054039;28;20526;-50
2022/03/18 12:40:00;;;;;;;9.00;3.90;;;11.20;91.90;;;;;;5053801;28;20448;-50
2022/03/18 12:42:27;;;;;;;8.43;3.00;;;11.60;91.90;;;;;;5053589;28;20430;-51
2022/03/18 12:44:59;;;;;;;8.70;3.80;;;11.50;91.70;;;;;;5053913;28;20455;-51
2022/03/18 12:47:28;;;;;;;9.47;3.73;;;11.80;91.10;;;;;;5067805;28;21006;-51
2022/03/18 12:49:54;;;;;;;9.80;2.93;;;11.60;90.60;;;;;;5073445;28;20490;-51
2022/03/18 12:52:21;;;;;;;10.47;4.23;;;12.10;90.60;;;;;;5073676;28;20477;-50
2022/03/18 12:55:09;;;;;;;10.30;3.27;;;11.90;90.80;;;;;;5073742;28;20887;-52
2022/03/18 12:57:37;;;;;;;10.63;3.50;;;11.60;90.00;;;;;;5073346;28;20436;-52
2022/03/18 13:00:08;;;;;;;13.17;3.80;;;12.10;89.70;;;;;;5073797;28;20552;-49
2022/03/18 13:02:35;;;;;;;12.93;3.27;;;11.60;89.70;;;;;;5055730;28;20923;-48
2022/03/18 13:05:05;;;;;;;7.80;2.80;;;11.50;89.80;;;;;;5073451;28;20442;-50
2022/03/18 13:07:32;;;;;;;7.10;3.57;;;12.00;89.60;;;;;;5073550;28;20439;-50
2022/03/18 13:10:00;;;;;;;14.47;4.00;;;12.10;89.50;;;;;;5073054;28;20493;-49
2022/03/18 13:12:30;;;;;;;17.33;3.87;;;11.90;87.10;;;;;;5073345;28;20655;-50
2022/03/18 13:14:57;;;;;;;7.87;2.30;;;11.70;87.20;;;;;;5073365;28;20458;-50
2022/03/18 13:17:24;;;;;;;5.70;2.47;;;11.90;86.90;;;;;;5071492;28;20528;-51